createdAt,value
2023-03-06T00:01:05.068Z,46
2023-03-06T00:16:05.479Z,42
2023-03-06T00:31:05.091Z,47
2023-03-06T00:46:05.146Z,66
2023-03-06T01:01:05.527Z,53
2023-03-06T01:16:05.867Z,48
2023-03-06T01:31:05.065Z,46
2023-03-06T01:46:05.675Z,56
2023-03-06T02:01:05.641Z,71
2023-03-06T02:16:04.450Z,67
2023-03-06T02:31:05.569Z,100
2023-03-06T02:46:04.903Z,87
2023-03-06T03:01:04.836Z,84
2023-03-06T03:16:05.566Z,75
2023-03-06T03:31:05.963Z,48
2023-03-06T03:46:05.786Z,49
2023-03-06T04:01:05.052Z,57
2023-03-06T04:16:05.596Z,85
2023-03-06T04:31:05.588Z,69
2023-03-06T04:46:05.452Z,58
2023-03-06T05:01:04.879Z,69
2023-03-06T05:16:05.466Z,54
2023-03-06T05:31:05.512Z,68
2023-03-06T05:46:05.021Z,51
2023-03-06T06:01:04.695Z,55
2023-03-06T06:16:04.853Z,78
2023-03-06T06:31:04.972Z,67
2023-03-06T07:01:06.007Z,66
2023-03-06T07:16:05.990Z,61
2023-03-06T07:31:05.802Z,45
2023-03-06T07:46:05.074Z,40
2023-03-06T08:01:05.602Z,50
2023-03-06T08:16:05.555Z,41
2023-03-06T08:31:06.160Z,34
2023-03-06T08:46:05.754Z,32
2023-03-06T09:01:05.287Z,31
2023-03-06T09:16:05.622Z,41
2023-03-06T09:31:05.009Z,43
2023-03-06T09:46:05.067Z,24
2023-03-06T10:01:05.200Z,19
2023-03-06T10:16:05.740Z,29
2023-03-06T10:31:05.817Z,29
2023-03-06T10:46:05.602Z,29
2023-03-06T11:01:05.883Z,23
2023-03-06T11:16:05.080Z,38
2023-03-06T11:31:05.593Z,15
2023-03-06T11:46:04.826Z,25
2023-03-06T12:01:04.748Z,34
2023-03-06T12:16:05.511Z,18
2023-03-06T12:31:05.335Z,28
2023-03-06T12:46:05.111Z,24
2023-03-06T13:01:05.628Z,22
2023-03-06T13:16:05.779Z,37
2023-03-06T13:31:08.910Z,43
2023-03-06T13:46:05.685Z,24
2023-03-06T14:01:05.771Z,26
2023-03-06T14:16:05.820Z,19
2023-03-06T14:31:05.513Z,21
2023-03-06T14:46:04.934Z,28
2023-03-06T15:01:05.125Z,49
2023-03-06T15:16:05.528Z,42
2023-03-06T15:31:04.754Z,43
2023-03-06T15:46:05.855Z,37
2023-03-06T16:01:05.699Z,33
2023-03-06T16:16:04.804Z,48
2023-03-06T16:31:05.566Z,67
2023-03-06T16:46:05.463Z,78
2023-03-06T17:01:04.633Z,125
2023-03-06T17:16:04.696Z,41
2023-03-06T17:31:05.910Z,28
2023-03-06T17:46:05.389Z,35
2023-03-06T18:01:05.546Z,66
2023-03-06T18:16:04.886Z,61
2023-03-06T18:31:04.189Z,67
2023-03-06T18:46:05.807Z,71
2023-03-06T19:01:05.339Z,74
2023-03-06T19:16:05.321Z,97
2023-03-06T19:31:04.923Z,64
2023-03-06T19:46:05.912Z,74
2023-03-06T20:01:05.534Z,85
2023-03-06T20:16:06.079Z,88
2023-03-06T20:31:05.611Z,86
2023-03-06T20:46:05.962Z,87
2023-03-06T21:01:05.484Z,51
2023-03-06T21:16:05.809Z,52
2023-03-06T21:31:05.102Z,70
2023-03-06T21:46:04.984Z,51
2023-03-06T22:01:05.369Z,56
2023-03-06T22:16:05.758Z,61
2023-03-06T22:31:04.857Z,59
2023-03-06T22:46:04.802Z,79
2023-03-06T23:01:06.077Z,148
2023-03-06T23:16:05.567Z,79
2023-03-06T23:31:05.807Z,82
2023-03-06T23:46:05.010Z,81
